AKST,Max TemperatureF,Mean TemperatureF,Min TemperatureF,Max Dew PointF,MeanDew PointF,Min DewpointF,Max Humidity, Mean Humidity, Min Humidity, Max Sea Level PressureIn, Mean Sea Level PressureIn, Min Sea Level PressureIn, Max VisibilityMiles, Mean VisibilityMiles, Min VisibilityMiles, Max Wind SpeedMPH, Mean Wind SpeedMPH, Max Gust SpeedMPH,PrecipitationIn, CloudCover, Events, WindDirDegrees
2013-2-1,42,38,33,37,36,32,100,88,76,30.20,30.17,30.14,10,9,0,7,2,,0.27,8,Rain,218
2013-2-2,44,40,35,39,37,34,93,86,76,30.13,30.01,29.95,10,8,4,12,4,24,0.80,8,Rain,124
2013-2-3,39,37,35,37,33,30,93,87,75,29.95,29.82,29.74,10,9,3,8,1,,0.41,7,,199
2013-2-4,37,34,30,34,31,27,93,90,81,29.92,29.80,29.53,10,9,2,6,1,,0.00,5,Fog,180
2013-2-5,41,36,32,34,30,28,93,83,61,29.52,29.45,29.41,10,9,5,12,1,,0.00,8,,209
2013-2-6,39,34,30,30,29,27,93,82,61,29.77,29.65,29.51,10,10,10,6,1,,0.00,6,,230
2013-2-7,37,34,30,34,32,28,93,89,81,30.01,29.91,29.78,10,10,7,5,0,,0.16,8,,230
2013-2-8,37,35,33,36,33,30,93,90,81,30.10,29.97,29.89,10,8,0,5,1,,0.35,8,Fog,234
2013-2-9,42,38,35,39,36,32,100,91,76,30.24,30.20,30.14,10,8,0,7,1,,0.04,8,Fog-Rain,255
2013-2-10,44,42,39,39,37,34,93,85,70,30.14,30.07,30.04,10,8,5,12,4,18,0.70,8,,183
2013-2-11,37,35,33,36,33,30,93,90,87,30.02,29.95,29.78,10,8,4,5,1,,0.43,8,,272
2013-2-12,37,34,30,32,29,25,93,83,65,30.17,29.86,29.67,10,8,1,13,3,21,0.20,5,,255
2013-2-13,39,36,32,32,29,27,93,79,61,30.31,30.26,30.18,10,10,3,9,2,,0.00,7,Rain,167
2013-2-14,39,37,35,36,34,30,93,87,75,30.21,30.11,29.98,10,8,5,7,2,,0.33,8,Rain,264
2013-2-15,48,42,37,45,38,36,93,82,71,29.98,29.89,29.84,10,7,3,14,4,24,1.62,8,,163
2013-2-16,42,36,30,36,34,28,93,88,70,30.20,30.09,29.96,10,10,1,9,2,,0.06,6,,229
2013-2-17,35,32,30,30,30,27,100,86,81,30.19,29.97,29.76,10,4,0,14,4,20,0.19,8,,90
2013-2-18,42,38,33,36,32,30,100,86,70,29.86,29.76,29.72,10,10,8,6,2,,0.07,6,,228
2013-2-19,42,38,33,34,32,30,93,86,65,29.93,29.84,29.67,10,9,4,8,1,,0.12,8,,242
2013-2-20,39,36,33,34,32,30,93,85,70,29.66,29.52,29.37,10,7,2,12,3,23,0.61,8,Rain-Snow,123
2013-2-21,39,36,33,36,32,23,93,86,65,29.47,29.40,29.15,10,9,5,9,3,,0.27,8,Rain-Snow,140
2013-2-22,39,36,33,36,33,30,93,88,75,29.66,29.19,28.92,10,9,5,10,4,22,0.19,7,,234
2013-2-23,35,32,30,30,30,27,93,86,70,29.87,29.79,29.67,10,6,1,10,3,,0.34,7,,264
2013-2-24,39,34,30,34,31,27,100,88,70,29.87,29.81,29.73,10,8,0,8,1,,0.08,5,,178
2013-2-25,39,34,30,30,27,21,93,75,52,30.01,29.94,29.87,10,10,9,14,2,20,0.00,5,,153
2013-2-26,39,37,35,30,29,27,81,71,61,29.86,29.72,29.66,10,9,5,15,11,26,0.03,7,,116
2013-2-27,39,37,35,36,32,30,87,80,70,29.83,29.70,29.60,10,10,7,17,8,26,0.30,8,Rain-Snow,112
2013-2-28,42,40,37,36,33,30,87,76,61,29.88,29.62,29.50,10,8,5,14,9,24,0.43,7,Rain,119